sensor_id;sensor_type;location;lat;lon;timestamp;temperature;humidity
34460;DHT22;20704;51.260;22.558;2023-02-28T00:01:29;-0.10;78.70
34460;DHT22;20704;51.260;22.558;2023-02-28T00:03:32;-0.10;79.40
34460;DHT22;20704;51.260;22.558;2023-02-28T00:05:37;-0.20;79.80
34460;DHT22;20704;51.260;22.558;2023-02-28T00:07:40;-0.20;79.50
34460;DHT22;20704;51.260;22.558;2023-02-28T00:09:42;-0.20;79.80
34460;DHT22;20704;51.260;22.558;2023-02-28T00:11:44;-0.20;80.00
34460;DHT22;20704;51.260;22.558;2023-02-28T00:13:47;-0.20;80.30
34460;DHT22;20704;51.260;22.558;2023-02-28T00:16:02;-0.20;80.40
34460;DHT22;20704;51.260;22.558;2023-02-28T00:18:04;-0.20;80.40
34460;DHT22;20704;51.260;22.558;2023-02-28T00:20:07;-0.30;80.40
34460;DHT22;20704;51.260;22.558;2023-02-28T00:22:10;-0.30;80.80
34460;DHT22;20704;51.260;22.558;2023-02-28T00:24:12;-0.30;80.80
34460;DHT22;20704;51.260;22.558;2023-02-28T00:26:14;-0.30;80.90
34460;DHT22;20704;51.260;22.558;2023-02-28T00:28:17;-0.20;81.30
34460;DHT22;20704;51.260;22.558;2023-02-28T00:30:23;-0.30;81.00
34460;DHT22;20704;51.260;22.558;2023-02-28T00:32:26;-0.30;80.90
34460;DHT22;20704;51.260;22.558;2023-02-28T00:34:28;-0.30;81.00
34460;DHT22;20704;51.260;22.558;2023-02-28T00:36:30;-0.30;81.70
34460;DHT22;20704;51.260;22.558;2023-02-28T00:38:32;-0.40;81.80
34460;DHT22;20704;51.260;22.558;2023-02-28T00:40:35;-0.30;81.90
34460;DHT22;20704;51.260;22.558;2023-02-28T00:42:37;-0.40;82.70
34460;DHT22;20704;51.260;22.558;2023-02-28T00:44:40;-0.10;83.60
34460;DHT22;20704;51.260;22.558;2023-02-28T00:46:42;-0.50;84.00
34460;DHT22;20704;51.260;22.558;2023-02-28T00:48:44;0.70;85.40
34460;DHT22;20704;51.260;22.558;2023-02-28T00:50:49;-0.50;84.70
34460;DHT22;20704;51.260;22.558;2023-02-28T00:52:52;-0.50;85.00
34460;DHT22;20704;51.260;22.558;2023-02-28T00:54:54;-0.10;85.50
34460;DHT22;20704;51.260;22.558;2023-02-28T00:56:57;-0.60;85.30
34460;DHT22;20704;51.260;22.558;2023-02-28T00:58:59;-0.80;85.70
34460;DHT22;20704;51.260;22.558;2023-02-28T01:01:02;-0.20;86.40
34460;DHT22;20704;51.260;22.558;2023-02-28T01:03:05;-0.60;86.60
34460;DHT22;20704;51.260;22.558;2023-02-28T01:05:08;-0.60;86.70
34460;DHT22;20704;51.260;22.558;2023-02-28T01:07:10;-0.70;87.40
34460;DHT22;20704;51.260;22.558;2023-02-28T01:09:13;-0.70;88.60
34460;DHT22;20704;51.260;22.558;2023-02-28T01:11:16;-0.70;88.50
34460;DHT22;20704;51.260;22.558;2023-02-28T01:13:19;-0.70;89.20
34460;DHT22;20704;51.260;22.558;2023-02-28T01:15:22;-0.60;90.20
34460;DHT22;20704;51.260;22.558;2023-02-28T01:17:24;0.60;90.50
34460;DHT22;20704;51.260;22.558;2023-02-28T01:19:28;-0.80;90.10
34460;DHT22;20704;51.260;22.558;2023-02-28T01:21:30;-0.70;90.20
34460;DHT22;20704;51.260;22.558;2023-02-28T01:23:33;-0.70;90.40
34460;DHT22;20704;51.260;22.558;2023-02-28T01:25:36;-0.50;90.70
34460;DHT22;20704;51.260;22.558;2023-02-28T01:27:38;-0.80;91.40
34460;DHT22;20704;51.260;22.558;2023-02-28T01:29:41;-0.80;92.20
34460;DHT22;20704;51.260;22.558;2023-02-28T01:31:43;-0.90;92.80
34460;DHT22;20704;51.260;22.558;2023-02-28T01:33:47;-0.30;93.00
34460;DHT22;20704;51.260;22.558;2023-02-28T01:35:49;-1.00;94.10
34460;DHT22;20704;51.260;22.558;2023-02-28T01:37:51;-1.10;94.40
34460;DHT22;20704;51.260;22.558;2023-02-28T01:39:54;-0.60;94.60
34460;DHT22;20704;51.260;22.558;2023-02-28T01:41:57;-0.90;95.30
34460;DHT22;20704;51.260;22.558;2023-02-28T01:44:02;-1.10;95.80
34460;DHT22;20704;51.260;22.558;2023-02-28T01:46:05;-1.20;96.20
34460;DHT22;20704;51.260;22.558;2023-02-28T01:48:08;-0.60;96.40
34460;DHT22;20704;51.260;22.558;2023-02-28T01:50:23;-1.20;96.20
34460;DHT22;20704;51.260;22.558;2023-02-28T01:52:27;-0.60;95.80
34460;DHT22;20704;51.260;22.558;2023-02-28T01:54:32;-1.20;96.10
34460;DHT22;20704;51.260;22.558;2023-02-28T01:56:36;-1.20;95.80
34460;DHT22;20704;51.260;22.558;2023-02-28T01:58:38;-1.20;96.30
34460;DHT22;20704;51.260;22.558;2023-02-28T02:00:41;-1.00;96.30
34460;DHT22;20704;51.260;22.558;2023-02-28T02:02:48;-0.20;98.10
34460;DHT22;20704;51.260;22.558;2023-02-28T02:05:00;-1.20;96.90
34460;DHT22;20704;51.260;22.558;2023-02-28T02:07:05;-1.10;95.30
34460;DHT22;20704;51.260;22.558;2023-02-28T02:09:07;-0.40;95.10
34460;DHT22;20704;51.260;22.558;2023-02-28T02:11:11;-1.20;94.90
34460;DHT22;20704;51.260;22.558;2023-02-28T02:17:52;-1.30;96.60
34460;DHT22;20704;51.260;22.558;2023-02-28T02:25:29;-1.30;98.40
34460;DHT22;20704;51.260;22.558;2023-02-28T02:27:57;-1.30;99.00
34460;DHT22;20704;51.260;22.558;2023-02-28T02:30:33;-1.40;99.10
34460;DHT22;20704;51.260;22.558;2023-02-28T02:35:52;-1.40;99.10
34460;DHT22;20704;51.260;22.558;2023-02-28T02:44:43;-1.40;99.90
34460;DHT22;20704;51.260;22.558;2023-02-28T02:46:49;-1.40;99.90
34460;DHT22;20704;51.260;22.558;2023-02-28T02:48:55;-1.40;99.90
34460;DHT22;20704;51.260;22.558;2023-02-28T02:51:04;-1.40;99.90
34460;DHT22;20704;51.260;22.558;2023-02-28T02:53:15;-1.50;99.90
34460;DHT22;20704;51.260;22.558;2023-02-28T02:55:20;-1.50;99.90
34460;DHT22;20704;51.260;22.558;2023-02-28T02:57:48;-1.20;99.90
34460;DHT22;20704;51.260;22.558;2023-02-28T02:59:54;-1.00;99.90
34460;DHT22;20704;51.260;22.558;2023-02-28T03:02:01;-1.50;99.90
34460;DHT22;20704;51.260;22.558;2023-02-28T03:04:08;-1.50;99.90
34460;DHT22;20704;51.260;22.558;2023-02-28T03:06:11;-0.80;99.90
34460;DHT22;20704;51.260;22.558;2023-02-28T03:08:13;-1.50;99.90
34460;DHT22;20704;51.260;22.558;2023-02-28T03:12:50;-0.60;99.90
34460;DHT22;20704;51.260;22.558;2023-02-28T03:17:31;-1.50;99.90
34460;DHT22;20704;51.260;22.558;2023-02-28T03:22:00;-1.50;99.90
34460;DHT22;20704;51.260;22.558;2023-02-28T03:26:55;-1.50;99.90
34460;DHT22;20704;51.260;22.558;2023-02-28T03:29:28;-0.30;99.90
34460;DHT22;20704;51.260;22.558;2023-02-28T03:31:56;-1.20;99.90
34460;DHT22;20704;51.260;22.558;2023-02-28T03:34:05;-1.40;99.90
34460;DHT22;20704;51.260;22.558;2023-02-28T03:36:17;-1.00;99.90
34460;DHT22;20704;51.260;22.558;2023-02-28T03:38:29;-0.50;99.90
34460;DHT22;20704;51.260;22.558;2023-02-28T03:40:36;-1.50;99.90
34460;DHT22;20704;51.260;22.558;2023-02-28T03:42:43;-1.50;99.90
34460;DHT22;20704;51.260;22.558;2023-02-28T03:45:10;-1.10;99.90
34460;DHT22;20704;51.260;22.558;2023-02-28T03:47:17;-1.50;99.90
34460;DHT22;20704;51.260;22.558;2023-02-28T03:49:25;-1.10;99.90
34460;DHT22;20704;51.260;22.558;2023-02-28T03:51:29;-0.20;99.90
34460;DHT22;20704;51.260;22.558;2023-02-28T03:53:37;-1.50;99.90
34460;DHT22;20704;51.260;22.558;2023-02-28T03:55:45;-1.40;99.90
34460;DHT22;20704;51.260;22.558;2023-02-28T03:57:58;-1.20;99.90
34460;DHT22;20704;51.260;22.558;2023-02-28T04:00:08;-0.20;99.90
34460;DHT22;20704;51.260;22.558;2023-02-28T04:02:12;-1.50;99.90
34460;DHT22;20704;51.260;22.558;2023-02-28T04:04:16;-0.90;99.90
34460;DHT22;20704;51.260;22.558;2023-02-28T04:06:20;-0.90;99.90
34460;DHT22;20704;51.260;22.558;2023-02-28T04:08:23;-1.30;99.90
34460;DHT22;20704;51.260;22.558;2023-02-28T04:10:25;-1.20;99.90
34460;DHT22;20704;51.260;22.558;2023-02-28T04:12:28;-0.70;99.90
34460;DHT22;20704;51.260;22.558;2023-02-28T04:14:30;-1.60;99.90
34460;DHT22;20704;51.260;22.558;2023-02-28T04:16:34;-1.10;99.90
34460;DHT22;20704;51.260;22.558;2023-02-28T04:18:37;-1.50;99.90
34460;DHT22;20704;51.260;22.558;2023-02-28T04:20:39;-1.60;99.90
34460;DHT22;20704;51.260;22.558;2023-02-28T04:22:42;-0.20;99.90
34460;DHT22;20704;51.260;22.558;2023-02-28T04:24:44;-1.30;99.90
34460;DHT22;20704;51.260;22.558;2023-02-28T04:26:49;-1.60;99.90
34460;DHT22;20704;51.260;22.558;2023-02-28T04:28:52;-1.50;99.90
34460;DHT22;20704;51.260;22.558;2023-02-28T04:30:56;-1.30;99.90
34460;DHT22;20704;51.260;22.558;2023-02-28T04:33:00;-0.70;99.90
34460;DHT22;20704;51.260;22.558;2023-02-28T04:35:02;-0.50;99.90
34460;DHT22;20704;51.260;22.558;2023-02-28T04:37:05;-1.50;99.90
34460;DHT22;20704;51.260;22.558;2023-02-28T04:39:15;-0.80;99.90
34460;DHT22;20704;51.260;22.558;2023-02-28T04:41:21;-0.90;99.90
34460;DHT22;20704;51.260;22.558;2023-02-28T04:43:23;-1.10;99.90
34460;DHT22;20704;51.260;22.558;2023-02-28T04:45:25;-0.60;99.90
34460;DHT22;20704;51.260;22.558;2023-02-28T04:47:27;-1.40;99.90
34460;DHT22;20704;51.260;22.558;2023-02-28T04:49:30;-0.60;99.90
34460;DHT22;20704;51.260;22.558;2023-02-28T04:51:33;-0.90;99.90
34460;DHT22;20704;51.260;22.558;2023-02-28T04:53:36;-1.30;99.90
34460;DHT22;20704;51.260;22.558;2023-02-28T04:55:39;-0.30;99.90
34460;DHT22;20704;51.260;22.558;2023-02-28T04:57:42;-1.10;99.70
34460;DHT22;20704;51.260;22.558;2023-02-28T04:59:44;-1.20;99.40
34460;DHT22;20704;51.260;22.558;2023-02-28T05:01:48;-1.00;99.10
34460;DHT22;20704;51.260;22.558;2023-02-28T05:03:52;-1.20;99.20
34460;DHT22;20704;51.260;22.558;2023-02-28T05:05:54;-1.10;99.50
34460;DHT22;20704;51.260;22.558;2023-02-28T05:07:57;-0.40;99.50
34460;DHT22;20704;51.260;22.558;2023-02-28T05:09:59;-1.10;99.00
34460;DHT22;20704;51.260;22.558;2023-02-28T05:12:01;-0.80;99.40
34460;DHT22;20704;51.260;22.558;2023-02-28T05:14:05;-1.20;99.60
34460;DHT22;20704;51.260;22.558;2023-02-28T05:16:08;-1.20;99.70
34460;DHT22;20704;51.260;22.558;2023-02-28T05:18:10;-0.60;99.20
34460;DHT22;20704;51.260;22.558;2023-02-28T05:20:13;-1.20;99.30
34460;DHT22;20704;51.260;22.558;2023-02-28T05:22:17;-0.60;99.90
34460;DHT22;20704;51.260;22.558;2023-02-28T05:24:20;-0.70;99.20
34460;DHT22;20704;51.260;22.558;2023-02-28T05:26:26;-1.20;99.70
34460;DHT22;20704;51.260;22.558;2023-02-28T05:28:28;-0.70;99.80
34460;DHT22;20704;51.260;22.558;2023-02-28T05:30:30;-0.90;99.70
34460;DHT22;20704;51.260;22.558;2023-02-28T05:32:33;-1.20;99.90
34460;DHT22;20704;51.260;22.558;2023-02-28T05:34:37;-0.90;99.90
34460;DHT22;20704;51.260;22.558;2023-02-28T05:36:39;-1.10;99.90
34460;DHT22;20704;51.260;22.558;2023-02-28T05:38:42;0.00;99.90
34460;DHT22;20704;51.260;22.558;2023-02-28T05:40:44;-1.10;99.90
34460;DHT22;20704;51.260;22.558;2023-02-28T05:42:47;-1.00;99.90
34460;DHT22;20704;51.260;22.558;2023-02-28T05:44:49;-0.50;99.90
34460;DHT22;20704;51.260;22.558;2023-02-28T05:46:58;-0.90;99.10
34460;DHT22;20704;51.260;22.558;2023-02-28T05:49:01;-0.70;98.60
34460;DHT22;20704;51.260;22.558;2023-02-28T05:51:06;-0.70;98.30
34460;DHT22;20704;51.260;22.558;2023-02-28T05:53:08;-0.50;97.60
34460;DHT22;20704;51.260;22.558;2023-02-28T05:55:10;-0.20;96.00
34460;DHT22;20704;51.260;22.558;2023-02-28T05:57:13;0.00;95.30
34460;DHT22;20704;51.260;22.558;2023-02-28T05:59:25;0.20;93.90
34460;DHT22;20704;51.260;22.558;2023-02-28T06:01:43;0.50;93.50
34460;DHT22;20704;51.260;22.558;2023-02-28T06:03:52;0.90;92.70
34460;DHT22;20704;51.260;22.558;2023-02-28T06:05:54;1.50;91.50
34460;DHT22;20704;51.260;22.558;2023-02-28T06:07:57;2.30;85.30
34460;DHT22;20704;51.260;22.558;2023-02-28T06:09:59;3.40;83.60
34460;DHT22;20704;51.260;22.558;2023-02-28T06:12:03;4.80;78.00
34460;DHT22;20704;51.260;22.558;2023-02-28T06:14:09;6.20;72.50
34460;DHT22;20704;51.260;22.558;2023-02-28T06:16:17;7.60;68.50
34460;DHT22;20704;51.260;22.558;2023-02-28T06:18:19;8.70;62.70
34460;DHT22;20704;51.260;22.558;2023-02-28T06:20:22;9.70;59.00
34460;DHT22;20704;51.260;22.558;2023-02-28T06:22:25;10.40;55.10
34460;DHT22;20704;51.260;22.558;2023-02-28T06:24:27;11.30;54.10
34460;DHT22;20704;51.260;22.558;2023-02-28T06:26:30;12.10;52.50
34460;DHT22;20704;51.260;22.558;2023-02-28T06:28:33;12.30;48.40
34460;DHT22;20704;51.260;22.558;2023-02-28T06:30:37;12.70;48.60
34460;DHT22;20704;51.260;22.558;2023-02-28T06:32:39;13.20;48.30
34460;DHT22;20704;51.260;22.558;2023-02-28T06:34:42;13.30;46.90
34460;DHT22;20704;51.260;22.558;2023-02-28T06:36:44;13.00;45.70
34460;DHT22;20704;51.260;22.558;2023-02-28T06:38:47;12.80;45.50
34460;DHT22;20704;51.260;22.558;2023-02-28T06:40:58;12.30;45.90
34460;DHT22;20704;51.260;22.558;2023-02-28T06:43:00;12.20;46.50
34460;DHT22;20704;51.260;22.558;2023-02-28T06:45:03;12.00;47.10
34460;DHT22;20704;51.260;22.558;2023-02-28T06:47:11;11.70;47.00
34460;DHT22;20704;51.260;22.558;2023-02-28T06:49:13;11.50;46.70
34460;DHT22;20704;51.260;22.558;2023-02-28T06:51:19;10.70;47.70
34460;DHT22;20704;51.260;22.558;2023-02-28T06:53:24;10.40;48.30
34460;DHT22;20704;51.260;22.558;2023-02-28T06:55:26;10.30;49.10
34460;DHT22;20704;51.260;22.558;2023-02-28T06:57:33;10.70;49.20
34460;DHT22;20704;51.260;22.558;2023-02-28T06:59:35;10.60;48.60
34460;DHT22;20704;51.260;22.558;2023-02-28T07:01:39;9.40;48.80
34460;DHT22;20704;51.260;22.558;2023-02-28T07:03:41;10.30;49.90
34460;DHT22;20704;51.260;22.558;2023-02-28T07:05:44;10.10;49.40
34460;DHT22;20704;51.260;22.558;2023-02-28T07:07:48;10.50;49.80
34460;DHT22;20704;51.260;22.558;2023-02-28T07:09:50;10.70;49.10
34460;DHT22;20704;51.260;22.558;2023-02-28T07:11:52;11.20;48.60
34460;DHT22;20704;51.260;22.558;2023-02-28T07:13:56;9.90;47.10
34460;DHT22;20704;51.260;22.558;2023-02-28T07:16:00;11.20;48.30
34460;DHT22;20704;51.260;22.558;2023-02-28T07:18:04;12.10;47.10
34460;DHT22;20704;51.260;22.558;2023-02-28T07:20:06;13.30;45.90
34460;DHT22;20704;51.260;22.558;2023-02-28T07:22:09;13.80;43.70
34460;DHT22;20704;51.260;22.558;2023-02-28T07:24:11;13.50;43.70
34460;DHT22;20704;51.260;22.558;2023-02-28T07:26:16;14.20;42.50
34460;DHT22;20704;51.260;22.558;2023-02-28T07:28:19;14.80;41.90
34460;DHT22;20704;51.260;22.558;2023-02-28T07:30:22;14.50;42.40
34460;DHT22;20704;51.260;22.558;2023-02-28T07:32:24;13.60;42.50
34460;DHT22;20704;51.260;22.558;2023-02-28T07:34:26;12.80;42.80
34460;DHT22;20704;51.260;22.558;2023-02-28T07:36:29;13.00;43.90
34460;DHT22;20704;51.260;22.558;2023-02-28T07:38:34;11.40;45.00
34460;DHT22;20704;51.260;22.558;2023-02-28T07:40:36;11.60;46.60
34460;DHT22;20704;51.260;22.558;2023-02-28T07:42:41;11.10;46.20
34460;DHT22;20704;51.260;22.558;2023-02-28T07:44:43;11.70;46.70
34460;DHT22;20704;51.260;22.558;2023-02-28T07:46:45;10.60;46.10
34460;DHT22;20704;51.260;22.558;2023-02-28T07:48:48;10.70;47.20
34460;DHT22;20704;51.260;22.558;2023-02-28T07:50:57;11.00;47.60
34460;DHT22;20704;51.260;22.558;2023-02-28T07:52:59;10.70;47.20
34460;DHT22;20704;51.260;22.558;2023-02-28T07:55:03;10.60;47.60
34460;DHT22;20704;51.260;22.558;2023-02-28T07:57:06;10.60;47.50
34460;DHT22;20704;51.260;22.558;2023-02-28T07:59:08;10.70;47.60
34460;DHT22;20704;51.260;22.558;2023-02-28T08:01:11;10.60;47.30
34460;DHT22;20704;51.260;22.558;2023-02-28T08:03:17;11.00;47.20
34460;DHT22;20704;51.260;22.558;2023-02-28T08:05:19;10.90;46.90
34460;DHT22;20704;51.260;22.558;2023-02-28T08:07:23;10.50;46.40
34460;DHT22;20704;51.260;22.558;2023-02-28T08:09:26;9.90;47.50
34460;DHT22;20704;51.260;22.558;2023-02-28T08:11:28;9.40;47.60
34460;DHT22;20704;51.260;22.558;2023-02-28T08:13:31;10.00;48.60
34460;DHT22;20704;51.260;22.558;2023-02-28T08:15:33;10.00;48.00
34460;DHT22;20704;51.260;22.558;2023-02-28T08:17:36;9.50;47.80
34460;DHT22;20704;51.260;22.558;2023-02-28T08:19:38;10.00;48.40
34460;DHT22;20704;51.260;22.558;2023-02-28T08:21:41;10.20;48.40
34460;DHT22;20704;51.260;22.558;2023-02-28T08:23:46;10.30;48.00
34460;DHT22;20704;51.260;22.558;2023-02-28T08:25:55;10.30;47.50
34460;DHT22;20704;51.260;22.558;2023-02-28T08:27:58;10.50;47.80
34460;DHT22;20704;51.260;22.558;2023-02-28T08:30:00;10.60;47.20
34460;DHT22;20704;51.260;22.558;2023-02-28T08:32:03;10.60;48.00
34460;DHT22;20704;51.260;22.558;2023-02-28T08:34:07;9.90;47.60
34460;DHT22;20704;51.260;22.558;2023-02-28T08:36:09;10.20;47.50
34460;DHT22;20704;51.260;22.558;2023-02-28T08:38:13;10.00;48.40
34460;DHT22;20704;51.260;22.558;2023-02-28T08:40:17;10.10;48.20
34460;DHT22;20704;51.260;22.558;2023-02-28T08:42:23;9.40;47.60
34460;DHT22;20704;51.260;22.558;2023-02-28T08:44:25;9.90;48.20
34460;DHT22;20704;51.260;22.558;2023-02-28T08:46:29;9.10;47.90
34460;DHT22;20704;51.260;22.558;2023-02-28T08:48:33;10.20;49.40
34460;DHT22;20704;51.260;22.558;2023-02-28T08:50:36;10.20;48.20
34460;DHT22;20704;51.260;22.558;2023-02-28T08:52:38;9.80;48.50
34460;DHT22;20704;51.260;22.558;2023-02-28T08:54:40;10.50;48.70
34460;DHT22;20704;51.260;22.558;2023-02-28T08:58:47;11.20;46.80
34460;DHT22;20704;51.260;22.558;2023-02-28T09:00:50;11.80;46.30
34460;DHT22;20704;51.260;22.558;2023-02-28T09:02:52;11.70;47.50
34460;DHT22;20704;51.260;22.558;2023-02-28T09:04:57;11.90;63.00
34460;DHT22;20704;51.260;22.558;2023-02-28T09:09:03;12.30;44.90
34460;DHT22;20704;51.260;22.558;2023-02-28T09:11:08;11.80;45.30
34460;DHT22;20704;51.260;22.558;2023-02-28T09:13:11;11.30;44.90
34460;DHT22;20704;51.260;22.558;2023-02-28T09:15:13;11.30;45.80
34460;DHT22;20704;51.260;22.558;2023-02-28T09:17:18;10.80;46.20
34460;DHT22;20704;51.260;22.558;2023-02-28T09:19:20;10.40;46.20
34460;DHT22;20704;51.260;22.558;2023-02-28T09:21:24;10.40;47.30
34460;DHT22;20704;51.260;22.558;2023-02-28T09:25:30;9.60;56.10
34460;DHT22;20704;51.260;22.558;2023-02-28T09:27:32;9.50;63.80
34460;DHT22;20704;51.260;22.558;2023-02-28T09:29:34;9.20;49.50
34460;DHT22;20704;51.260;22.558;2023-02-28T09:33:39;9.00;49.50
34460;DHT22;20704;51.260;22.558;2023-02-28T09:35:42;8.70;50.10
34460;DHT22;20704;51.260;22.558;2023-02-28T09:37:44;9.10;50.50
34460;DHT22;20704;51.260;22.558;2023-02-28T09:39:47;9.20;50.10
34460;DHT22;20704;51.260;22.558;2023-02-28T09:41:54;9.30;49.80
34460;DHT22;20704;51.260;22.558;2023-02-28T09:43:59;9.10;48.70
34460;DHT22;20704;51.260;22.558;2023-02-28T09:46:29;8.90;49.00
34460;DHT22;20704;51.260;22.558;2023-02-28T09:48:36;8.00;49.40
34460;DHT22;20704;51.260;22.558;2023-02-28T09:50:48;8.00;50.10
34460;DHT22;20704;51.260;22.558;2023-02-28T09:52:53;8.00;50.60
34460;DHT22;20704;51.260;22.558;2023-02-28T09:55:26;7.90;50.80
34460;DHT22;20704;51.260;22.558;2023-02-28T09:57:38;7.60;51.40
34460;DHT22;20704;51.260;22.558;2023-02-28T10:06:50;7.10;58.80
34460;DHT22;20704;51.260;22.558;2023-02-28T10:09:03;6.80;52.70
34460;DHT22;20704;51.260;22.558;2023-02-28T10:11:09;6.60;52.90
34460;DHT22;20704;51.260;22.558;2023-02-28T10:13:24;6.60;53.10
34460;DHT22;20704;51.260;22.558;2023-02-28T10:15:30;6.70;53.50
34460;DHT22;20704;51.260;22.558;2023-02-28T10:17:39;6.50;53.20
34460;DHT22;20704;51.260;22.558;2023-02-28T10:20:02;6.90;53.40
34460;DHT22;20704;51.260;22.558;2023-02-28T10:22:36;7.20;53.30
34460;DHT22;20704;51.260;22.558;2023-02-28T10:24:43;7.30;52.70
34460;DHT22;20704;51.260;22.558;2023-02-28T10:26:47;7.60;52.60
34460;DHT22;20704;51.260;22.558;2023-02-28T10:28:51;7.90;52.30
34460;DHT22;20704;51.260;22.558;2023-02-28T10:30:55;8.20;52.40
34460;DHT22;20704;51.260;22.558;2023-02-28T10:32:57;8.10;51.60
34460;DHT22;20704;51.260;22.558;2023-02-28T10:37:10;8.60;51.80
34460;DHT22;20704;51.260;22.558;2023-02-28T10:41:42;8.50;51.00
34460;DHT22;20704;51.260;22.558;2023-02-28T10:43:44;8.50;51.00
34460;DHT22;20704;51.260;22.558;2023-02-28T10:48:26;8.20;51.60
34460;DHT22;20704;51.260;22.558;2023-02-28T10:50:39;8.20;51.60
34460;DHT22;20704;51.260;22.558;2023-02-28T10:52:44;8.10;52.00
34460;DHT22;20704;51.260;22.558;2023-02-28T10:54:46;8.10;51.60
34460;DHT22;20704;51.260;22.558;2023-02-28T10:59:29;8.30;52.00
34460;DHT22;20704;51.260;22.558;2023-02-28T11:01:42;7.90;51.40
34460;DHT22;20704;51.260;22.558;2023-02-28T11:03:47;7.90;51.80
34460;DHT22;20704;51.260;22.558;2023-02-28T11:05:50;7.60;52.10
34460;DHT22;20704;51.260;22.558;2023-02-28T11:07:54;7.50;52.10
34460;DHT22;20704;51.260;22.558;2023-02-28T11:09:58;7.60;52.90
34460;DHT22;20704;51.260;22.558;2023-02-28T11:12:05;7.60;53.50
34460;DHT22;20704;51.260;22.558;2023-02-28T11:14:21;7.80;53.90
34460;DHT22;20704;51.260;22.558;2023-02-28T11:16:33;7.90;54.00
34460;DHT22;20704;51.260;22.558;2023-02-28T11:18:44;7.60;52.90
34460;DHT22;20704;51.260;22.558;2023-02-28T11:20:50;7.50;52.60
34460;DHT22;20704;51.260;22.558;2023-02-28T11:22:56;7.80;53.30
34460;DHT22;20704;51.260;22.558;2023-02-28T11:25:02;7.80;53.30
34460;DHT22;20704;51.260;22.558;2023-02-28T11:27:05;7.10;56.70
34460;DHT22;20704;51.260;22.558;2023-02-28T11:29:21;7.30;59.00
34460;DHT22;20704;51.260;22.558;2023-02-28T11:31:24;7.50;58.20
34460;DHT22;20704;51.260;22.558;2023-02-28T11:33:31;7.60;60.30
34460;DHT22;20704;51.260;22.558;2023-02-28T11:35:38;7.80;62.00
34460;DHT22;20704;51.260;22.558;2023-02-28T11:39:44;7.50;54.40
34460;DHT22;20704;51.260;22.558;2023-02-28T11:41:59;7.50;54.40
34460;DHT22;20704;51.260;22.558;2023-02-28T11:44:13;7.40;54.50
34460;DHT22;20704;51.260;22.558;2023-02-28T11:48:26;7.30;59.10
34460;DHT22;20704;51.260;22.558;2023-02-28T11:53:01;7.20;55.50
34460;DHT22;20704;51.260;22.558;2023-02-28T12:02:28;6.40;54.70
34460;DHT22;20704;51.260;22.558;2023-02-28T12:04:52;6.50;64.50
34460;DHT22;20704;51.260;22.558;2023-02-28T12:19:28;5.90;57.00
34460;DHT22;20704;51.260;22.558;2023-02-28T12:28:34;5.60;58.00
34460;DHT22;20704;51.260;22.558;2023-02-28T12:30:46;5.60;62.60
34460;DHT22;20704;51.260;22.558;2023-02-28T12:33:09;5.80;59.00
34460;DHT22;20704;51.260;22.558;2023-02-28T12:35:19;5.90;58.60
34460;DHT22;20704;51.260;22.558;2023-02-28T12:37:41;5.80;58.30
34460;DHT22;20704;51.260;22.558;2023-02-28T12:39:49;5.80;58.70
34460;DHT22;20704;51.260;22.558;2023-02-28T12:42:07;5.60;65.30
34460;DHT22;20704;51.260;22.558;2023-02-28T12:44:34;5.90;58.50
34460;DHT22;20704;51.260;22.558;2023-02-28T12:46:49;6.00;58.60
34460;DHT22;20704;51.260;22.558;2023-02-28T12:48:56;5.70;57.60
34460;DHT22;20704;51.260;22.558;2023-02-28T12:51:00;5.70;57.60
34460;DHT22;20704;51.260;22.558;2023-02-28T12:53:21;5.90;63.90
34460;DHT22;20704;51.260;22.558;2023-02-28T13:00:16;5.60;67.20
34460;DHT22;20704;51.260;22.558;2023-02-28T13:02:33;5.70;64.70
34460;DHT22;20704;51.260;22.558;2023-02-28T13:09:15;5.20;65.60
34460;DHT22;20704;51.260;22.558;2023-02-28T13:11:34;5.20;65.30
34460;DHT22;20704;51.260;22.558;2023-02-28T13:13:45;5.10;59.50
34460;DHT22;20704;51.260;22.558;2023-02-28T13:20:04;4.90;67.10
34460;DHT22;20704;51.260;22.558;2023-02-28T13:22:19;5.00;62.80
34460;DHT22;20704;51.260;22.558;2023-02-28T13:35:44;4.80;66.30
34460;DHT22;20704;51.260;22.558;2023-02-28T13:37:48;4.70;66.50
34460;DHT22;20704;51.260;22.558;2023-02-28T13:39:58;4.70;67.00
34460;DHT22;20704;51.260;22.558;2023-02-28T13:44:24;4.90;66.30
34460;DHT22;20704;51.260;22.558;2023-02-28T13:46:29;4.90;66.00
34460;DHT22;20704;51.260;22.558;2023-02-28T13:48:31;4.70;61.20
34460;DHT22;20704;51.260;22.558;2023-02-28T13:50:35;4.70;61.00
34460;DHT22;20704;51.260;22.558;2023-02-28T13:52:48;4.70;60.90
34460;DHT22;20704;51.260;22.558;2023-02-28T13:55:24;4.60;60.20
34460;DHT22;20704;51.260;22.558;2023-02-28T13:57:53;4.60;60.70
34460;DHT22;20704;51.260;22.558;2023-02-28T14:04:50;4.50;61.80
34460;DHT22;20704;51.260;22.558;2023-02-28T14:06:56;4.50;62.20
34460;DHT22;20704;51.260;22.558;2023-02-28T14:11:06;4.40;62.20
34460;DHT22;20704;51.260;22.558;2023-02-28T14:18:02;4.30;62.40
34460;DHT22;20704;51.260;22.558;2023-02-28T14:20:12;4.40;66.70
34460;DHT22;20704;51.260;22.558;2023-02-28T14:32:11;4.30;63.70
34460;DHT22;20704;51.260;22.558;2023-02-28T14:34:37;4.00;67.40
34460;DHT22;20704;51.260;22.558;2023-02-28T14:36:43;4.20;69.20
34460;DHT22;20704;51.260;22.558;2023-02-28T14:38:57;4.20;63.10
34460;DHT22;20704;51.260;22.558;2023-02-28T14:41:11;4.10;63.40
34460;DHT22;20704;51.260;22.558;2023-02-28T14:43:25;3.80;69.10
34460;DHT22;20704;51.260;22.558;2023-02-28T14:45:30;4.00;64.30
34460;DHT22;20704;51.260;22.558;2023-02-28T14:47:34;4.00;64.70
34460;DHT22;20704;51.260;22.558;2023-02-28T14:49:43;3.90;65.10
34460;DHT22;20704;51.260;22.558;2023-02-28T14:51:49;3.90;65.20
34460;DHT22;20704;51.260;22.558;2023-02-28T14:54:01;3.90;70.50
34460;DHT22;20704;51.260;22.558;2023-02-28T14:56:04;3.70;69.20
34460;DHT22;20704;51.260;22.558;2023-02-28T14:58:27;3.80;70.30
34460;DHT22;20704;51.260;22.558;2023-02-28T15:00:34;3.80;70.00
34460;DHT22;20704;51.260;22.558;2023-02-28T15:02:40;3.80;65.20
34460;DHT22;20704;51.260;22.558;2023-02-28T15:04:42;3.70;70.20
34460;DHT22;20704;51.260;22.558;2023-02-28T15:06:44;3.80;70.50
34460;DHT22;20704;51.260;22.558;2023-02-28T15:09:11;3.80;70.20
34460;DHT22;20704;51.260;22.558;2023-02-28T15:11:18;3.70;70.60
34460;DHT22;20704;51.260;22.558;2023-02-28T15:13:23;3.60;70.60
34460;DHT22;20704;51.260;22.558;2023-02-28T15:18:03;3.70;70.00
34460;DHT22;20704;51.260;22.558;2023-02-28T15:20:12;3.50;70.70
34460;DHT22;20704;51.260;22.558;2023-02-28T15:22:18;3.40;70.60
34460;DHT22;20704;51.260;22.558;2023-02-28T15:24:53;3.40;71.00
34460;DHT22;20704;51.260;22.558;2023-02-28T15:26:56;3.40;66.10
34460;DHT22;20704;51.260;22.558;2023-02-28T15:29:07;3.30;71.40
34460;DHT22;20704;51.260;22.558;2023-02-28T15:31:41;3.60;70.60